createdAt,value
2017-04-19T00:00:12.915Z,8.63
2017-04-19T00:01:12.381Z,7.88
2017-04-19T00:02:11.900Z,7.52
2017-04-19T00:03:11.347Z,8.63
2017-04-19T00:04:12.249Z,9.28
2017-04-19T00:05:12.548Z,7.92
2017-04-19T00:06:12.018Z,8.02
2017-04-19T00:07:11.525Z,10.33
2017-04-19T00:08:10.995Z,8.17
2017-04-19T00:09:11.261Z,8.57
2017-04-19T00:17:18.876Z,9.32
2017-04-19T00:18:18.371Z,7.75
2017-04-19T00:19:17.823Z,7.78
2017-04-19T00:20:17.268Z,8.40
2017-04-19T00:21:16.744Z,8.60
2017-04-19T00:22:16.203Z,9.03
2017-04-19T00:23:15.712Z,8.75
2017-04-19T00:24:15.176Z,9.02
2017-04-19T00:25:14.688Z,9.63
2017-04-19T00:26:14.443Z,7.77
2017-04-19T00:27:14.343Z,9.13
2017-04-19T00:28:13.891Z,9.80
2017-04-19T00:29:13.731Z,8.03
2017-04-19T00:30:13.213Z,9.03
2017-04-19T00:31:13.424Z,8.17
2017-04-19T00:32:12.886Z,9.63
2017-04-19T00:33:12.361Z,8.90
2017-04-19T00:34:11.839Z,8.22
2017-04-19T00:35:11.519Z,8.73
2017-04-19T00:36:10.995Z,8.82
2017-04-19T00:37:10.501Z,8.92
2017-04-19T00:38:09.988Z,8.93
2017-04-19T00:39:10.198Z,8.32
2017-04-19T00:40:10.391Z,10.23
2017-04-19T00:41:10.260Z,9.08
2017-04-19T00:42:09.744Z,8.83
2017-04-19T00:43:09.213Z,8.87
2017-04-19T00:44:08.721Z,9.90
2017-04-19T00:45:08.171Z,8.75
2017-04-19T00:46:07.640Z,9.08
2017-04-19T00:47:07.259Z,9.80
2017-04-19T00:48:06.823Z,10.13
2017-04-19T00:49:06.280Z,8.95
2017-04-19T00:50:06.489Z,9.32
2017-04-19T00:51:06.706Z,8.70
2017-04-19T00:52:06.956Z,10.07
2017-04-19T00:53:06.461Z,12.88
2017-04-19T00:54:05.901Z,9.77
2017-04-19T00:55:06.239Z,9.58
2017-04-19T00:56:05.785Z,8.72
2017-04-19T00:57:05.318Z,8.87
2017-04-19T00:58:04.905Z,10.20
2017-04-19T00:59:04.383Z,10.20
2017-04-19T01:00:03.912Z,10.07
2017-04-19T01:01:03.497Z,9.25
2017-04-19T01:02:03.042Z,9.62
2017-04-19T01:03:02.534Z,10.90
2017-04-19T01:04:02.167Z,9.62
2017-04-19T01:05:01.603Z,10.57
2017-04-19T01:06:01.100Z,9.55
2017-04-19T01:07:00.611Z,10.92
2017-04-19T01:08:00.078Z,10.12
2017-04-19T01:08:59.539Z,10.62
2017-04-19T01:09:59.289Z,9.03
2017-04-19T01:10:58.755Z,9.58
2017-04-19T01:11:58.261Z,12.07
2017-04-19T01:12:57.716Z,10.75
2017-04-19T01:13:57.220Z,9.63
2017-04-19T01:14:56.728Z,11.77
2017-04-19T01:15:56.544Z,10.07
2017-04-19T01:16:57.184Z,12.60
2017-04-19T01:17:56.735Z,13.25
2017-04-19T01:18:57.008Z,11.00
2017-04-19T01:19:56.533Z,10.47
2017-04-19T01:20:56.035Z,10.60
2017-04-19T01:21:56.286Z,12.65
2017-04-19T01:22:55.885Z,11.63
2017-04-19T01:23:55.339Z,10.52
2017-04-19T01:24:55.598Z,11.90
2017-04-19T01:25:55.151Z,9.75
2017-04-19T01:26:55.684Z,14.20
2017-04-19T01:27:56.188Z,11.17
2017-04-19T01:28:55.833Z,13.95
2017-04-19T01:29:55.337Z,14.77
2017-04-19T01:30:54.780Z,11.82
2017-04-19T01:31:55.107Z,10.08
2017-04-19T01:32:54.671Z,10.12
2017-04-19T01:33:54.140Z,11.77
2017-04-19T01:34:53.627Z,12.95
2017-04-19T01:35:53.106Z,11.23
2017-04-19T01:36:52.571Z,10.68
2017-04-19T01:37:52.988Z,11.18
2017-04-19T01:38:52.512Z,10.98
2017-04-19T01:39:52.009Z,11.05
2017-04-19T01:40:51.475Z,10.27
2017-04-19T01:41:50.971Z,11.65
2017-04-19T01:42:50.712Z,11.75
2017-04-19T01:43:50.935Z,11.30
2017-04-19T01:44:51.138Z,10.83
2017-04-19T01:45:50.583Z,12.25
2017-04-19T01:46:50.234Z,14.12
2017-04-19T01:47:49.721Z,11.88
2017-04-19T01:48:49.201Z,11.52
2017-04-19T01:49:48.712Z,11.02
2017-04-19T01:50:48.148Z,10.58
2017-04-19T01:51:47.628Z,9.97
2017-04-19T01:52:47.109Z,10.10
2017-04-19T01:53:46.549Z,11.72
2017-04-19T01:54:46.008Z,12.65
2017-04-19T01:55:45.844Z,11.25
2017-04-19T01:56:45.297Z,12.75
2017-04-19T01:57:44.762Z,9.68
2017-04-19T01:58:44.192Z,14.05
2017-04-19T01:59:43.666Z,9.72
2017-04-19T02:00:43.104Z,12.88
2017-04-19T02:01:44.459Z,10.77
2017-04-19T02:02:44.368Z,13.50
2017-04-19T02:03:43.891Z,11.23
2017-04-19T02:04:43.358Z,13.25
2017-04-19T02:05:46.985Z,12.28
2017-04-19T02:06:48.996Z,12.58
2017-04-19T02:07:48.531Z,13.03
2017-04-19T02:08:48.756Z,14.95
2017-04-19T02:09:48.220Z,11.00
2017-04-19T02:10:47.736Z,12.30
2017-04-19T02:11:47.213Z,13.30
2017-04-19T02:12:46.878Z,11.62
2017-04-19T02:13:46.355Z,13.18
2017-04-19T02:14:45.812Z,13.15
2017-04-19T02:15:45.310Z,12.65
2017-04-19T02:16:44.806Z,13.62
2017-04-19T02:17:44.269Z,11.13
2017-04-19T02:18:44.142Z,12.53
2017-04-19T02:19:44.351Z,13.67
2017-04-19T02:20:43.835Z,13.32
2017-04-19T02:21:43.308Z,11.68
2017-04-19T02:22:42.756Z,14.40
2017-04-19T02:23:42.237Z,11.58
2017-04-19T02:24:41.936Z,13.55
2017-04-19T02:25:41.399Z,12.08
2017-04-19T02:26:40.898Z,14.55
2017-04-19T02:27:40.358Z,11.02
2017-04-19T02:28:39.980Z,14.17
2017-04-19T02:29:39.479Z,12.87
2017-04-19T02:30:39.426Z,13.20
2017-04-19T02:31:38.982Z,11.70
2017-04-19T02:32:40.349Z,14.10
2017-04-19T02:33:39.971Z,14.83
2017-04-19T02:34:39.515Z,15.37
2017-04-19T02:35:39.044Z,14.15
2017-04-19T02:36:38.604Z,18.77
2017-04-19T02:37:38.124Z,13.13
2017-04-19T02:38:38.333Z,14.95
2017-04-19T02:39:38.545Z,15.18
2017-04-19T02:40:38.856Z,16.45
2017-04-19T02:41:39.208Z,15.90
2017-04-19T02:42:38.717Z,15.50
2017-04-19T02:43:38.248Z,16.48
2017-04-19T02:44:37.904Z,16.05
2017-04-19T02:45:37.356Z,16.80
2017-04-19T02:46:36.884Z,15.82
2017-04-19T02:47:36.350Z,15.25
2017-04-19T02:48:35.859Z,13.90
2017-04-19T02:49:35.341Z,17.77
2017-04-19T02:50:34.807Z,15.43
2017-04-19T02:51:34.330Z,19.23
2017-04-19T02:52:33.832Z,16.00
2017-04-19T02:53:33.311Z,16.22
2017-04-19T02:54:33.532Z,18.10
2017-04-19T02:55:33.065Z,14.23
2017-04-19T02:56:32.505Z,18.90
2017-04-19T02:57:32.000Z,14.62
2017-04-19T02:58:32.419Z,15.65
2017-04-19T02:59:31.980Z,16.83
2017-04-19T03:00:31.440Z,15.92
2017-04-19T03:01:30.946Z,19.68
2017-04-19T03:02:34.120Z,17.63
2017-04-19T03:03:33.882Z,17.80
2017-04-19T03:04:34.120Z,17.93
2017-04-19T03:05:33.571Z,19.72
2017-04-19T03:06:33.720Z,20.27
2017-04-19T03:07:33.171Z,19.80
2017-04-19T03:08:32.645Z,17.50
2017-04-19T03:09:32.357Z,18.37
2017-04-19T03:10:31.910Z,18.12
2017-04-19T03:11:31.381Z,17.98
2017-04-19T03:12:30.902Z,17.52
2017-04-19T03:13:30.372Z,21.08
2017-04-19T03:14:30.610Z,17.93
2017-04-19T03:15:30.544Z,21.17
2017-04-19T03:16:30.700Z,19.33
2017-04-19T03:17:32.277Z,19.50
2017-04-19T03:18:32.088Z,18.10
2017-04-19T03:19:31.644Z,19.52
2017-04-19T03:20:31.458Z,18.47
2017-04-19T03:21:31.696Z,20.37
2017-04-19T03:22:31.184Z,18.63
2017-04-19T03:23:31.627Z,22.62
2017-04-19T03:24:31.918Z,20.12
2017-04-19T03:25:31.389Z,19.45
2017-04-19T03:26:30.848Z,22.05
2017-04-19T03:27:30.328Z,19.38
2017-04-19T03:28:29.870Z,19.53
2017-04-19T03:29:29.406Z,21.70
2017-04-19T03:30:30.147Z,20.93
2017-04-19T03:31:30.465Z,21.68
2017-04-19T03:32:30.670Z,18.60
2017-04-19T03:33:30.216Z,20.45
2017-04-19T03:34:29.689Z,19.80
2017-04-19T03:35:29.919Z,21.07
2017-04-19T03:36:29.430Z,20.30
2017-04-19T03:37:28.917Z,19.47
2017-04-19T03:38:28.375Z,17.78
2017-04-19T03:39:27.903Z,20.55
2017-04-19T03:40:27.407Z,21.53
2017-04-19T03:41:26.871Z,19.98
2017-04-19T03:42:26.357Z,22.70
2017-04-19T03:43:25.890Z,21.40
2017-04-19T03:44:25.598Z,25.23
2017-04-19T03:45:25.084Z,20.33
2017-04-19T03:46:24.601Z,21.97
2017-04-19T03:47:24.101Z,20.53
2017-04-19T03:48:23.635Z,18.90
2017-04-19T03:49:23.144Z,18.05
2017-04-19T03:50:22.680Z,18.92
2017-04-19T03:51:22.894Z,16.83
2017-04-19T03:52:22.386Z,15.78
2017-04-19T03:53:21.873Z,19.90
2017-04-19T03:54:21.647Z,19.10
2017-04-19T03:55:21.135Z,20.60
2017-04-19T03:56:21.347Z,18.30
2017-04-19T03:57:20.795Z,17.53
2017-04-19T03:58:20.380Z,19.13
2017-04-19T03:59:19.876Z,18.85
2017-04-19T04:00:19.553Z,21.62
2017-04-19T04:01:19.029Z,20.45
2017-04-19T04:02:18.468Z,18.65
2017-04-19T04:03:17.979Z,18.55
2017-04-19T04:04:17.484Z,18.38
2017-04-19T04:05:16.968Z,17.63
2017-04-19T04:06:16.708Z,16.17
2017-04-19T04:07:16.187Z,17.60
2017-04-19T04:08:15.664Z,18.15
2017-04-19T04:09:15.135Z,15.48
2017-04-19T04:10:14.619Z,18.62
2017-04-19T04:11:14.131Z,20.03
2017-04-19T04:12:13.676Z,15.12
2017-04-19T04:13:13.733Z,19.48
2017-04-19T04:14:13.261Z,16.87
2017-04-19T04:15:13.523Z,17.15
2017-04-19T04:16:13.052Z,18.57
2017-04-19T04:17:12.836Z,17.30
2017-04-19T04:18:12.423Z,17.87
2017-04-19T04:19:11.884Z,13.87
2017-04-19T04:20:11.338Z,13.70
2017-04-19T04:21:11.251Z,15.27
2017-04-19T04:22:10.743Z,16.52
2017-04-19T04:23:10.404Z,14.25
2017-04-19T04:24:09.947Z,16.17
2017-04-19T04:25:10.192Z,18.53
2017-04-19T04:26:09.648Z,15.80
2017-04-19T04:27:09.233Z,15.98
2017-04-19T04:28:08.814Z,18.13
2017-04-19T04:29:08.386Z,15.20
2017-04-19T04:30:07.922Z,14.15
2017-04-19T04:31:07.447Z,15.17
2017-04-19T04:32:07.628Z,19.37
2017-04-19T04:33:07.124Z,15.33
2017-04-19T04:34:06.606Z,18.32
2017-04-19T04:35:06.459Z,18.45
2017-04-19T04:36:06.122Z,18.50
2017-04-19T04:37:05.614Z,16.05
2017-04-19T04:38:05.212Z,18.75
2017-04-19T04:39:05.279Z,15.65
2017-04-19T04:40:04.764Z,13.45
2017-04-19T04:41:04.516Z,20.83
2017-04-19T04:42:04.015Z,19.00
2017-04-19T04:43:03.530Z,19.63
2017-04-19T04:44:02.987Z,24.27
2017-04-19T04:45:05.159Z,25.55
2017-04-19T04:46:04.655Z,24.38
2017-04-19T04:47:04.141Z,23.85
2017-04-19T04:48:03.605Z,20.05
2017-04-19T04:49:03.098Z,17.95
2017-04-19T04:50:02.525Z,25.65
2017-04-19T04:51:02.012Z,21.03
2017-04-19T04:52:01.856Z,18.62
2017-04-19T04:53:01.329Z,22.20
2017-04-19T04:54:00.824Z,19.80
2017-04-19T04:55:01.042Z,20.53
2017-04-19T04:56:01.438Z,21.53
2017-04-19T04:57:01.034Z,23.67
2017-04-19T04:58:00.573Z,22.63
2017-04-19T04:59:00.028Z,19.98
2017-04-19T04:59:59.539Z,20.75
2017-04-19T05:00:59.042Z,24.03
2017-04-19T05:01:59.243Z,21.20
2017-04-19T05:02:59.608Z,21.22
2017-04-19T05:03:59.069Z,22.35
2017-04-19T05:04:58.522Z,16.95
2017-04-19T05:05:58.027Z,19.27
2017-04-19T05:06:57.542Z,21.88
2017-04-19T05:07:57.033Z,21.58
2017-04-19T05:08:56.543Z,20.98
2017-04-19T05:09:56.018Z,23.45
2017-04-19T05:10:55.499Z,19.18
2017-04-19T05:11:54.993Z,17.43
2017-04-19T05:12:54.427Z,16.37
2017-04-19T05:13:53.957Z,16.28
2017-04-19T05:14:53.714Z,15.62
2017-04-19T05:15:53.171Z,17.23
2017-04-19T05:16:52.675Z,16.10
2017-04-19T05:17:52.143Z,15.73
2017-04-19T05:18:51.632Z,15.40
2017-04-19T05:19:51.095Z,15.47
2017-04-19T05:20:50.920Z,15.28
2017-04-19T05:21:50.397Z,15.45
2017-04-19T05:22:49.861Z,16.07
2017-04-19T05:23:49.367Z,15.22
2017-04-19T05:24:48.884Z,15.10
2017-04-19T05:25:48.363Z,14.63
2017-04-19T05:26:48.066Z,16.28
2017-04-19T05:27:47.551Z,15.95
2017-04-19T05:28:47.140Z,16.35
2017-04-19T05:29:47.417Z,14.35
2017-04-19T05:30:46.959Z,13.77
2017-04-19T05:31:46.711Z,16.72
2017-04-19T05:32:46.574Z,15.73
2017-04-19T05:33:46.096Z,12.95
2017-04-19T05:34:46.365Z,14.22
2017-04-19T05:35:46.792Z,14.92
2017-04-19T05:36:46.572Z,15.35
2017-04-19T05:37:46.079Z,14.63
2017-04-19T05:38:46.304Z,18.85
2017-04-19T05:39:45.801Z,12.82
2017-04-19T05:40:45.378Z,12.50
2017-04-19T05:41:44.820Z,13.70
2017-04-19T05:42:44.295Z,13.27
2017-04-19T05:43:43.985Z,11.85
2017-04-19T05:44:43.816Z,12.17
2017-04-19T05:45:43.441Z,15.45
2017-04-19T05:46:42.898Z,14.95
2017-04-19T05:47:42.947Z,17.03
2017-04-19T05:48:43.353Z,13.98
2017-04-19T05:49:42.877Z,11.83
2017-04-19T05:50:42.375Z,16.70
2017-04-19T05:51:41.869Z,15.77
2017-04-19T05:52:41.375Z,14.92
2017-04-19T05:53:40.884Z,12.67
2017-04-19T05:54:40.427Z,13.20
2017-04-19T05:55:39.930Z,13.28
2017-04-19T05:56:40.185Z,14.03
2017-04-19T05:57:39.658Z,16.13
2017-04-19T05:58:39.224Z,11.97
2017-04-19T05:59:38.711Z,12.90
2017-04-19T06:00:38.219Z,15.65
2017-04-19T06:01:37.673Z,13.32
2017-04-19T06:02:37.132Z,13.20
2017-04-19T06:03:36.631Z,15.07
2017-04-19T06:04:36.356Z,15.72
2017-04-19T06:05:35.816Z,17.92
2017-04-19T06:06:36.186Z,14.67
2017-04-19T06:07:35.651Z,14.23
2017-04-19T06:08:41.570Z,12.38
2017-04-19T06:09:42.068Z,10.52
2017-04-19T06:10:41.573Z,15.02
2017-04-19T06:11:41.095Z,12.58
2017-04-19T06:12:40.672Z,12.53
2017-04-19T06:13:40.168Z,15.10
2017-04-19T06:14:40.368Z,12.63
2017-04-19T06:15:39.876Z,13.10
2017-04-19T06:16:40.108Z,11.97
2017-04-19T06:17:39.676Z,13.22
2017-04-19T06:18:39.131Z,16.15
2017-04-19T06:19:38.621Z,13.57
2017-04-19T06:20:38.083Z,13.08
2017-04-19T06:21:37.551Z,15.07
2017-04-19T06:22:37.805Z,14.60
2017-04-19T06:23:37.285Z,14.85
2017-04-19T06:24:36.763Z,12.02
2017-04-19T06:25:36.221Z,13.67
2017-04-19T06:26:35.683Z,13.48
2017-04-19T06:27:35.096Z,15.23
2017-04-19T06:28:34.851Z,16.93
2017-04-19T06:29:34.413Z,12.63
2017-04-19T06:30:33.868Z,12.75
2017-04-19T06:31:34.176Z,11.27
2017-04-19T06:32:33.659Z,11.77
2017-04-19T06:33:33.112Z,10.88
2017-04-19T06:34:32.845Z,10.45
2017-04-19T06:35:32.360Z,15.63
2017-04-19T06:36:31.828Z,11.17
2017-04-19T06:37:31.350Z,12.32
2017-04-19T06:38:30.819Z,11.50
2017-04-19T06:39:31.025Z,11.45
2017-04-19T06:40:30.659Z,11.87
2017-04-19T06:41:30.124Z,11.38
2017-04-19T06:42:29.591Z,11.22
2017-04-19T06:43:31.623Z,10.87
2017-04-19T06:44:31.176Z,10.80
2017-04-19T06:45:30.671Z,17.98
2017-04-19T06:46:33.313Z,11.33
2017-04-19T06:47:33.058Z,10.97
2017-04-19T06:48:32.542Z,11.22
2017-04-19T06:49:32.015Z,10.88
2017-04-19T06:50:31.569Z,11.63
2017-04-19T06:51:31.046Z,10.72
2017-04-19T06:52:30.524Z,11.80
2017-04-19T06:53:30.030Z,11.75
2017-04-19T06:54:29.535Z,10.90
2017-04-19T06:55:29.051Z,12.10
2017-04-19T06:56:28.665Z,10.33
2017-04-19T06:57:28.087Z,11.67
2017-04-19T06:58:27.534Z,9.85
2017-04-19T06:59:27.005Z,15.40
2017-04-19T07:00:26.477Z,9.58
2017-04-19T07:01:26.074Z,14.32
2017-04-19T07:02:25.968Z,10.60
2017-04-19T07:03:25.425Z,10.93
2017-04-19T07:04:24.913Z,8.33
2017-04-19T07:05:25.127Z,8.07
2017-04-19T07:06:24.609Z,7.45
2017-04-19T07:07:24.128Z,7.53
2017-04-19T07:08:24.052Z,7.62
2017-04-19T07:09:23.585Z,6.57
2017-04-19T07:10:23.042Z,6.63
2017-04-19T07:11:22.528Z,9.45
2017-04-19T07:12:22.031Z,7.80
2017-04-19T07:13:27.348Z,7.55
2017-04-19T07:14:27.360Z,7.93
2017-04-19T07:15:26.836Z,6.65
2017-04-19T07:16:26.312Z,8.58
2017-04-19T07:17:26.551Z,6.78
2017-04-19T07:18:26.055Z,6.18
2017-04-19T07:19:26.318Z,8.42
2017-04-19T07:20:25.847Z,8.20
2017-04-19T07:21:25.292Z,9.02
2017-04-19T07:22:25.004Z,6.40
2017-04-19T07:23:24.953Z,6.42
2017-04-19T07:24:25.105Z,10.57
2017-04-19T07:25:25.097Z,8.70
2017-04-19T07:26:24.616Z,6.23
2017-04-19T07:27:24.099Z,5.52
2017-04-19T07:28:23.744Z,5.02
2017-04-19T07:29:23.196Z,5.52
2017-04-19T07:30:22.691Z,9.10
2017-04-19T07:31:22.160Z,5.78
2017-04-19T07:32:21.649Z,6.88
2017-04-19T07:33:22.006Z,6.52
2017-04-19T07:34:21.451Z,5.73
2017-04-19T07:35:20.940Z,6.78
2017-04-19T07:36:21.494Z,5.75
2017-04-19T07:37:20.960Z,6.12
2017-04-19T07:38:21.291Z,5.03
2017-04-19T07:39:21.542Z,5.23
2017-04-19T07:40:21.199Z,5.07
2017-04-19T07:41:20.716Z,4.78
2017-04-19T07:42:20.251Z,4.92
2017-04-19T07:43:19.824Z,4.87
2017-04-19T07:44:19.317Z,5.32
2017-04-19T07:45:18.871Z,4.60
2017-04-19T07:46:18.416Z,3.93
2017-04-19T07:47:17.904Z,4.27
2017-04-19T07:48:17.365Z,3.87
2017-04-19T07:49:16.805Z,4.30
2017-04-19T07:50:16.278Z,4.03
2017-04-19T07:51:15.789Z,4.02
2017-04-19T07:52:15.314Z,4.62
2017-04-19T07:53:14.889Z,5.13
2017-04-19T07:54:15.188Z,2.98
2017-04-19T07:55:14.719Z,3.17
2017-04-19T07:56:14.174Z,3.62
2017-04-19T07:57:13.776Z,7.23
2017-04-19T07:58:13.303Z,4.40
2017-04-19T07:59:13.056Z,3.27
2017-04-19T08:00:12.598Z,3.98
2017-04-19T08:01:12.108Z,4.10
2017-04-19T08:02:11.602Z,3.93
2017-04-19T08:03:11.782Z,3.15
2017-04-19T08:04:11.339Z,2.82
2017-04-19T08:05:11.961Z,3.92
2017-04-19T08:06:11.417Z,5.97
2017-04-19T08:07:10.847Z,4.55
2017-04-19T08:08:10.477Z,4.22
2017-04-19T08:09:09.991Z,3.48
2017-04-19T08:10:10.274Z,3.40
2017-04-19T08:11:10.041Z,3.13
2017-04-19T08:12:09.579Z,4.97
2017-04-19T08:13:09.090Z,3.55
2017-04-19T08:14:12.582Z,3.38
2017-04-19T08:15:12.611Z,4.12
2017-04-19T08:16:12.356Z,3.38
2017-04-19T08:17:11.943Z,3.03
2017-04-19T08:18:11.636Z,3.68
2017-04-19T08:19:11.253Z,2.45
2017-04-19T08:20:10.799Z,2.80
2017-04-19T08:21:11.048Z,4.08
2017-04-19T08:22:10.961Z,3.73
2017-04-19T08:23:10.525Z,4.13
2017-04-19T08:24:10.087Z,3.40
2017-04-19T08:25:09.690Z,2.58
2017-04-19T08:26:09.565Z,6.62
2017-04-19T08:27:09.136Z,3.48
2017-04-19T08:28:08.841Z,3.67
2017-04-19T08:29:08.351Z,3.40
2017-04-19T08:30:07.933Z,3.27
2017-04-19T08:31:07.479Z,3.25
2017-04-19T08:32:07.009Z,3.02
2017-04-19T08:33:06.544Z,2.85
2017-04-19T08:34:07.166Z,2.90
2017-04-19T08:35:06.758Z,2.60
2017-04-19T08:36:06.308Z,3.58
2017-04-19T08:37:05.885Z,3.17
2017-04-19T08:38:05.413Z,3.02
2017-04-19T08:39:08.333Z,3.15
2017-04-19T08:40:07.953Z,4.28
2017-04-19T08:41:07.478Z,2.97
2017-04-19T08:42:07.037Z,2.72
2017-04-19T08:43:06.758Z,2.68
2017-04-19T08:44:07.067Z,5.63
2017-04-19T08:45:06.816Z,3.68
2017-04-19T08:46:06.344Z,3.57
2017-04-19T08:47:05.852Z,2.92
2017-04-19T08:48:06.151Z,1.95
2017-04-19T08:49:05.731Z,2.88
2017-04-19T08:50:05.745Z,3.07
2017-04-19T08:51:05.453Z,2.70
2017-04-19T08:52:05.064Z,2.90
2017-04-19T08:53:04.695Z,3.53
2017-04-19T08:54:04.176Z,3.32
2017-04-19T08:55:03.743Z,3.78
2017-04-19T08:56:03.295Z,3.22
2017-04-19T08:57:03.190Z,2.58
2017-04-19T08:58:02.724Z,2.87
2017-04-19T08:59:02.264Z,3.48
2017-04-19T09:00:01.776Z,3.12
2017-04-19T09:01:01.309Z,2.77
2017-04-19T09:02:00.895Z,2.95
2017-04-19T09:03:00.644Z,3.10
2017-04-19T09:04:00.159Z,2.82
2017-04-19T09:04:59.694Z,3.20
2017-04-19T09:05:59.373Z,6.55
2017-04-19T09:06:58.964Z,4.20
2017-04-19T09:07:58.568Z,3.33
2017-04-19T09:08:58.291Z,3.32
2017-04-19T09:09:57.910Z,2.88
2017-04-19T09:10:57.570Z,5.88
2017-04-19T09:11:57.088Z,4.42
2017-04-19T09:12:56.649Z,8.27
2017-04-19T09:13:56.171Z,2.30
2017-04-19T09:14:55.991Z,2.70
2017-04-19T09:15:55.617Z,2.77
2017-04-19T09:16:55.153Z,2.85
2017-04-19T09:17:54.764Z,2.10
2017-04-19T09:18:54.322Z,2.72
2017-04-19T09:19:53.912Z,3.47
2017-04-19T09:20:53.795Z,2.80
2017-04-19T09:21:53.294Z,2.95
2017-04-19T09:22:52.817Z,2.73
2017-04-19T09:23:52.385Z,2.98
2017-04-19T09:24:52.855Z,2.82
2017-04-19T09:25:52.484Z,2.93
2017-04-19T09:26:52.424Z,3.20
2017-04-19T09:27:51.927Z,3.52
2017-04-19T09:28:51.413Z,3.18
2017-04-19T09:29:50.967Z,3.03
2017-04-19T09:30:50.503Z,2.80
2017-04-19T09:31:50.716Z,2.78
2017-04-19T09:32:50.265Z,4.15
2017-04-19T09:33:52.064Z,2.85
2017-04-19T09:34:52.670Z,3.58
2017-04-19T09:35:52.205Z,3.28
2017-04-19T09:36:51.830Z,3.17
2017-04-19T09:37:51.527Z,3.70
2017-04-19T09:38:54.530Z,3.92
2017-04-19T09:39:54.796Z,3.40
2017-04-19T09:40:54.401Z,6.85
2017-04-19T09:41:53.949Z,3.90
2017-04-19T09:42:53.696Z,3.40
2017-04-19T09:43:53.222Z,2.48
2017-04-19T09:44:53.175Z,2.98
2017-04-19T09:45:52.695Z,2.60
2017-04-19T09:46:52.155Z,2.75
2017-04-19T09:47:51.692Z,2.73
2017-04-19T09:48:51.492Z,3.42
2017-04-19T09:49:51.005Z,3.03
2017-04-19T09:50:50.564Z,3.50
2017-04-19T09:51:50.126Z,3.18
2017-04-19T09:52:49.655Z,2.65
2017-04-19T09:53:49.183Z,2.57
2017-04-19T09:54:48.936Z,2.37
2017-04-19T09:55:48.421Z,2.10
2017-04-19T09:56:47.940Z,3.07
2017-04-19T09:57:47.594Z,2.20
2017-04-19T09:58:47.159Z,1.75
2017-04-19T09:59:46.690Z,2.25
2017-04-19T10:00:46.540Z,2.18
2017-04-19T10:01:46.092Z,1.93
2017-04-19T10:02:45.680Z,2.27
2017-04-19T10:03:45.189Z,2.12
2017-04-19T10:04:44.755Z,2.62
2017-04-19T10:05:44.268Z,2.35
2017-04-19T10:06:43.986Z,2.10
2017-04-19T10:07:43.512Z,2.63
2017-04-19T10:08:43.072Z,2.12
2017-04-19T10:09:43.283Z,2.85
2017-04-19T10:10:42.916Z,1.92
2017-04-19T10:11:43.257Z,2.67
2017-04-19T10:12:42.818Z,2.92
2017-04-19T10:13:42.395Z,3.25
2017-04-19T10:14:41.979Z,2.42
2017-04-19T10:15:41.840Z,2.15
2017-04-19T10:16:41.344Z,2.57
2017-04-19T10:17:41.075Z,2.37
2017-04-19T10:18:40.620Z,3.00
2017-04-19T10:19:40.180Z,2.08
2017-04-19T10:20:43.299Z,2.77
2017-04-19T10:21:42.773Z,2.33
2017-04-19T10:22:42.557Z,2.57
2017-04-19T10:23:42.004Z,2.30
2017-04-19T10:24:42.241Z,2.70
2017-04-19T10:25:42.448Z,2.83
2017-04-19T10:26:41.927Z,2.97
2017-04-19T10:27:41.396Z,2.73
2017-04-19T10:28:41.771Z,2.68
2017-04-19T10:29:41.250Z,2.68
2017-04-19T10:30:40.704Z,2.62
2017-04-19T10:31:40.169Z,2.33
2017-04-19T10:32:39.646Z,3.03
2017-04-19T10:33:39.916Z,2.45
2017-04-19T10:34:39.470Z,2.60
2017-04-19T10:35:38.925Z,2.88
2017-04-19T10:36:41.710Z,3.17
2017-04-19T10:37:41.304Z,3.55
2017-04-19T10:38:41.570Z,2.47
2017-04-19T10:39:41.334Z,2.60
2017-04-19T10:40:40.840Z,4.10
2017-04-19T10:41:43.742Z,2.83
2017-04-19T10:42:43.186Z,2.57
2017-04-19T10:43:42.644Z,3.13
2017-04-19T10:44:42.304Z,2.77
2017-04-19T10:45:41.766Z,2.70
2017-04-19T10:46:41.983Z,2.60
2017-04-19T10:47:41.500Z,2.32
2017-04-19T10:48:41.025Z,2.25
2017-04-19T10:49:40.486Z,2.42
2017-04-19T10:50:40.190Z,1.92
2017-04-19T10:51:39.663Z,2.23
2017-04-19T10:52:39.865Z,1.95
2017-04-19T10:53:39.331Z,1.83
2017-04-19T10:54:38.795Z,1.73
2017-04-19T10:55:38.255Z,2.32
2017-04-19T10:56:38.596Z,2.18
2017-04-19T10:57:38.131Z,2.12
2017-04-19T10:58:37.943Z,2.15
2017-04-19T10:59:37.412Z,1.77
2017-04-19T11:00:36.895Z,2.07
2017-04-19T11:01:36.374Z,2.17
2017-04-19T11:02:36.264Z,3.55
2017-04-19T11:03:35.733Z,1.85
2017-04-19T11:04:35.228Z,2.42
2017-04-19T11:05:34.716Z,1.87
2017-04-19T11:06:34.222Z,1.78
2017-04-19T11:07:33.651Z,2.22
2017-04-19T11:08:33.331Z,1.98
2017-04-19T11:09:33.555Z,2.02
2017-04-19T11:10:33.021Z,2.38
2017-04-19T11:11:32.504Z,1.83
2017-04-19T11:12:32.292Z,2.37
2017-04-19T11:13:31.759Z,2.30
2017-04-19T11:14:31.374Z,2.07
2017-04-19T11:15:30.832Z,2.38
2017-04-19T11:16:30.294Z,2.10
2017-04-19T11:17:30.535Z,1.83
2017-04-19T11:18:30.051Z,2.83
2017-04-19T11:19:29.539Z,3.32
2017-04-19T11:20:29.223Z,1.80
2017-04-19T11:21:28.730Z,2.25
2017-04-19T11:22:28.239Z,1.55
2017-04-19T11:23:27.694Z,1.35
2017-04-19T11:24:27.897Z,1.57
2017-04-19T11:25:28.127Z,1.90
2017-04-19T11:26:27.827Z,2.22
2017-04-19T11:27:27.300Z,2.32
2017-04-19T11:28:26.745Z,1.75
2017-04-19T11:29:26.290Z,2.00
2017-04-19T11:30:25.788Z,2.28
2017-04-19T11:31:26.104Z,2.32
2017-04-19T11:32:26.037Z,2.48
2017-04-19T11:33:25.530Z,2.48
2017-04-19T11:34:25.052Z,2.20
2017-04-19T11:35:24.570Z,2.15
2017-04-19T11:36:24.020Z,2.43
2017-04-19T11:37:23.509Z,2.78
2017-04-19T11:38:22.985Z,2.52
2017-04-19T11:39:22.428Z,1.90
2017-04-19T11:40:21.892Z,2.25
2017-04-19T11:41:21.343Z,2.38
2017-04-19T11:42:20.795Z,2.95
2017-04-19T11:43:20.260Z,2.13
2017-04-19T11:44:20.029Z,3.18
2017-04-19T11:45:19.504Z,2.52
2017-04-19T11:46:18.972Z,2.42
2017-04-19T11:47:18.463Z,4.88
2017-04-19T11:48:17.974Z,2.45
2017-04-19T11:49:17.425Z,2.52
2017-04-19T11:50:16.967Z,2.50
2017-04-19T11:51:16.404Z,2.77
2017-04-19T11:52:16.628Z,2.80
2017-04-19T11:53:16.147Z,3.17
2017-04-19T11:54:15.582Z,2.77
2017-04-19T11:55:15.044Z,3.83
2017-04-19T11:56:14.813Z,2.93
2017-04-19T11:57:14.268Z,4.00
2017-04-19T11:58:14.216Z,3.10
2017-04-19T11:59:13.754Z,5.08
2017-04-19T12:00:13.255Z,3.22
2017-04-19T12:01:12.716Z,3.60
2017-04-19T12:02:12.308Z,3.90
2017-04-19T12:03:11.785Z,3.60
2017-04-19T12:04:11.287Z,3.65
2017-04-19T12:05:10.701Z,4.38
2017-04-19T12:06:10.171Z,3.67
2017-04-19T12:07:09.639Z,4.20
2017-04-19T12:08:09.255Z,3.77
2017-04-19T12:09:09.447Z,4.83
2017-04-19T12:10:08.928Z,2.70
2017-04-19T12:11:08.413Z,3.78
2017-04-19T12:12:07.861Z,2.97
2017-04-19T12:13:07.297Z,3.37
2017-04-19T12:14:07.167Z,3.43
2017-04-19T12:15:06.600Z,6.70
2017-04-19T12:16:06.171Z,3.22
2017-04-19T12:17:05.920Z,3.07
2017-04-19T12:18:05.407Z,2.90
2017-04-19T12:19:04.874Z,2.90
2017-04-19T12:20:04.733Z,3.67
2017-04-19T12:21:04.171Z,4.08
2017-04-19T12:22:04.452Z,3.53
2017-04-19T12:23:04.026Z,3.18
2017-04-19T12:24:04.680Z,3.53
2017-04-19T12:25:04.216Z,3.60
2017-04-19T12:26:03.815Z,3.10
2017-04-19T12:27:03.320Z,4.32
2017-04-19T12:28:02.763Z,3.28
2017-04-19T12:29:02.246Z,4.03
2017-04-19T12:30:02.652Z,2.90
2017-04-19T12:31:02.237Z,3.88
2017-04-19T12:32:02.237Z,2.92
2017-04-19T12:33:04.539Z,3.73
2017-04-19T12:34:04.069Z,3.62
2017-04-19T12:35:03.616Z,5.47
2017-04-19T12:36:03.281Z,3.57
2017-04-19T12:37:03.141Z,3.20
2017-04-19T12:38:02.902Z,2.60
2017-04-19T12:39:02.397Z,3.45
2017-04-19T12:40:01.896Z,3.75
2017-04-19T12:41:01.570Z,3.72
2017-04-19T12:42:01.518Z,4.03
2017-04-19T12:43:00.989Z,3.57
2017-04-19T12:44:00.583Z,3.77
2017-04-19T12:45:01.499Z,4.72
2017-04-19T12:46:01.991Z,3.28
2017-04-19T12:47:02.087Z,5.18
2017-04-19T12:48:01.816Z,4.25
2017-04-19T12:49:01.401Z,3.62
2017-04-19T12:50:06.573Z,3.47
2017-04-19T12:51:06.274Z,3.95
2017-04-19T12:52:06.332Z,3.57
2017-04-19T12:53:05.892Z,4.22
2017-04-19T12:54:05.541Z,3.27
2017-04-19T12:55:05.172Z,3.68
2017-04-19T12:56:04.842Z,4.30
2017-04-19T12:57:04.411Z,3.65
2017-04-19T12:58:04.314Z,3.60
2017-04-19T12:59:04.194Z,3.40
2017-04-19T13:00:03.938Z,3.18
2017-04-19T13:01:03.527Z,3.05
2017-04-19T13:02:03.304Z,3.68
2017-04-19T13:03:03.715Z,3.37
2017-04-19T13:04:03.544Z,4.62
2017-04-19T13:05:03.237Z,3.45
2017-04-19T13:06:02.936Z,3.50
2017-04-19T13:07:02.585Z,4.02
2017-04-19T13:08:02.233Z,4.30
2017-04-19T13:09:02.108Z,3.95
2017-04-19T13:10:01.764Z,3.83